• Join FlightAware (Why Join?)
  • Login
  • US Flag 
06:20PM EDT


 

Airport Tracker/Info


-or-


 

Live Flight TrackerFlight Track Log ✈ ASQ4151 ✈ 23-Apr-2013 ✈ KBWI - KCLE

Flight Track Log - Related Links

Times and Time Zones

All times are in EDT time to prevent confusion due to time zone crossing. See the ASQ4151 flight status page for this flight to view local times or setup timezone preferences in your user account.

Time Position Orientation Groundspeed Altitude Reporting Facility
EDT Latitude Longitude Course Direction KTS MPH feet Rate Location/Type
06:11AM 39.1333 -76.6667 293° West 200 230 2,300  Level Potomac TRACON
06:12AM 39.1500 -76.7167 293° West 210 242 5,600 2,580 Climbing Potomac TRACON
06:13AM 39.1833 -76.8000 297° West 251 289 8,100 1,860 Climbing Potomac TRACON
06:15AM 39.2678 -77.0069 298° West 285 328 12,000 1,740 Climbing Washington Center
06:16AM 39.3208 -77.1072 304° West 318 366 13,800 1,680 Climbing Washington Center
06:17AM 39.3758 -77.2050 306° West 336 387 15,400 1,560 Climbing Washington Center
06:18AM 39.4306 -77.3139 303° West 352 405 17,000 1,200 Climbing Washington Center
06:19AM 39.4872 -77.4200 305° West 357 411 17,900 1,140 Climbing Washington Center
06:21AM 39.5928 -77.6169 305° West 367 422 20,300 1,260 Climbing Cleveland Center
06:22AM 39.6519 -77.7331 304° West 373 429 21,700 1,260 Climbing Cleveland Center
06:23AM 39.7156 -77.8519 305° West 389 448 22,900 1,080 Climbing Cleveland Center
06:24AM 39.7767 -77.9736 303° West 389 448 23,900 540 Climbing Cleveland Center
06:25AM 39.8419 -78.0983 304° West 402 463 24,000  Climbing Cleveland Center
06:26AM 39.9197 -78.2172 310° West 420 483 24,000  Level Cleveland Center
06:27AM 40.0036 -78.3525 309° West 438 504 24,000  Level Cleveland Center
06:28AM 40.0808 -78.4719 310° West 438 504 24,000  Level Cleveland Center
06:29AM 40.1581 -78.5892 311° West 433 498 24,000  Level Cleveland Center
06:30AM 40.2353 -78.7119 310° West 433 498 24,000  Level Cleveland Center
06:31AM 40.3144 -78.8322 311° West 438 504 24,000  Level Cleveland Center
06:32AM 40.3869 -78.9558 308° West 438 504 24,000  Level Cleveland Center
06:33AM 40.4575 -79.0822 306° West 432 497 24,000  Level Cleveland Center
06:34AM 40.5258 -79.2064 306° West 427 491 24,000  Level Cleveland Center
06:35AM 40.5917 -79.3200 307° West 427 491 24,000  Level Cleveland Center
06:36AM 40.6619 -79.4444 307° West 427 491 24,000  Level Cleveland Center
06:37AM 40.7319 -79.5747 305° West 432 497 24,000  Level Cleveland Center
06:38AM 40.8017 -79.7025 306° West 432 497 24,000  Level Cleveland Center
06:39AM 40.8714 -79.8281 306° West 432 497 24,000  Level Cleveland Center
06:40AM 40.9431 -79.9564 307° West 432 497 24,000  Level Cleveland Center
06:41AM 41.0125 -80.0822 306° West 432 497 24,000  Level Cleveland Center
06:42AM 41.0817 -80.2111 305° West 432 497 24,000  Level Cleveland Center
06:43AM 41.1592 -80.3542 306° West 432 497 24,000  Level Cleveland Center
06:44AM 41.2283 -80.4836 305° West 432 497 24,000 -600 Level Cleveland Center
06:45AM 41.2825 -80.5858 305° West 381 438 22,800 -1,920 Descending Cleveland Center
06:46AM 41.3344 -80.6883 304° West 345 397 20,200 -2,340 Descending Cleveland Center
06:47AM 41.3761 -80.7933 298° West 333 383 18,200 -1,740 Descending Cleveland Center
06:48AM 41.4114 -80.8850 297° West 319 367 16,800 -1,740 Descending Cleveland Center
06:49AM 41.4633 -80.9628 312° West 298 343 14,800 -1,800 Descending Cleveland Center
06:50AM 41.5317 -81.0242 326° Northwest 291 335 13,300 -1,800 Descending Cleveland Center
06:51AM 41.5356 -81.1464 272° West 278 320 11,000 -1,680 Descending Cleveland Center
06:52AM 41.5453 -81.2267 279° West 272 313 10,000 -1,620 Descending Cleveland Center
06:53AM 41.5572 -81.3239 279° West 277 319 8,100 -1,740 Descending Cleveland Center
06:54AM 41.5672 -81.4186 278° West 277 319 6,600 -1,320 Descending Cleveland Center
06:55AM 41.5708 -81.4658 276° West 234 269 6,200 -600 Descending Cleveland Center
06:55AM 41.5769 -81.4992 284° West 248 285 6,000 -780 Descending Cleveland Center
06:56AM 41.5808 -81.5325 279° West 175 201 5,500 -1,020 Descending Cleveland Center
06:56AM 41.5742 -81.5656 255° West 198 228 5,000 -1,020 Descending Cleveland Center
06:57AM 41.5678 -81.6017 257° West 194 223 4,500 -1,020 Descending Cleveland Center
06:57AM 41.5550 -81.6292 238° Southwest 182 209 4,000 -480 Descending Cleveland Center
06:58AM 41.5317 -81.6622 227° Southwest 183 211 4,000 -120 Level Cleveland Center
06:58AM 41.5189 -81.6842 232° Southwest 182 209 3,900 -540 Descending Cleveland Center
06:59AM 41.5019 -81.7114 230° Southwest 181 208 3,500 -840 Descending Cleveland Center
06:59AM 41.4853 -81.7333 225° Southwest 182 209 3,100 -840 Descending Cleveland Center
07:00AM 41.4725 -81.7581 235° Southwest 171 197 2,700 -780 Descending Cleveland Center
07:01AM 41.4469 -81.7964 228° Southwest 109 125 1,900 -720 Descending Cleveland Center
07:02AM 41.4258 -81.8319 232° Southwest 123 142 1,200 -720 Descending Cleveland Center
07:04AM 41.4000 -81.8500 252° West  Level FlightAware Approximate